Time;durP1;ratioP1;P1;durP2;ratioP2;P2;SDS_P1;SDS_P2;PMS_P1;PMS_P2;Temp;Humidity;BMP_temperature;BMP_pressure;BME280_temperature;BME280_humidity;BME280_pressure;Samples;Min_cycle;Max_cycle;Signal;HPM_P1;HPM_P2
2023/08/17 00:01:37;;;;;;;4.45;1.75;;;17.20;99.90;;;;;;5051040;28;20223;-82
2023/08/17 00:04:04;;;;;;;5.15;1.75;;;17.10;99.90;;;;;;5060615;28;20250;-82
2023/08/17 00:06:31;;;;;;;5.05;1.55;;;17.20;99.90;;;;;;5042836;28;20227;-82
2023/08/17 00:08:58;;;;;;;2.92;1.40;;;17.10;99.90;;;;;;5045152;28;20231;-82
2023/08/17 00:11:25;;;;;;;4.97;1.30;;;17.10;99.90;;;;;;5043631;28;20224;-82
2023/08/17 00:13:52;;;;;;;3.55;1.58;;;17.00;99.90;;;;;;5044605;28;20220;-82
2023/08/17 00:16:20;;;;;;;5.63;1.50;;;17.00;99.90;;;;;;5043739;28;20261;-82
2023/08/17 00:18:47;;;;;;;4.20;1.40;;;17.00;99.90;;;;;;5050355;28;20228;-83
2023/08/17 00:21:14;;;;;;;5.63;1.58;;;16.90;99.90;;;;;;5043662;28;20246;-83
2023/08/17 00:23:40;;;;;;;3.50;1.63;;;16.90;99.90;;;;;;5043265;28;20227;-83
2023/08/17 00:26:07;;;;;;;3.00;1.50;;;16.90;99.90;;;;;;5047137;28;20223;-81
2023/08/17 00:28:34;;;;;;;4.32;1.52;;;16.80;99.90;;;;;;5051300;28;20242;-82
2023/08/17 00:31:01;;;;;;;3.35;1.10;;;16.80;99.90;;;;;;5047845;28;20247;-81
2023/08/17 00:33:29;;;;;;;3.97;1.63;;;16.80;99.90;;;;;;5047837;28;20302;-81
2023/08/17 00:35:56;;;;;;;3.15;1.23;;;16.80;99.90;;;;;;5041616;28;20251;-81
2023/08/17 00:38:22;;;;;;;3.38;1.70;;;16.80;99.90;;;;;;5047842;28;20228;-81
2023/08/17 00:40:49;;;;;;;9.00;1.75;;;16.70;99.90;;;;;;5050394;28;20293;-81
2023/08/17 00:43:16;;;;;;;3.08;1.30;;;16.70;99.90;;;;;;5051163;28;20325;-81
2023/08/17 00:45:46;;;;;;;3.60;1.50;;;16.70;99.90;;;;;;5048687;28;20296;-82
2023/08/17 00:48:13;;;;;;;3.53;1.53;;;16.70;99.90;;;;;;5049189;28;20396;-81
2023/08/17 00:50:43;;;;;;;4.47;1.73;;;16.70;99.90;;;;;;5047648;28;20258;-81
2023/08/17 00:53:13;;;;;;;5.00;1.50;;;16.70;99.90;;;;;;5039738;28;20224;-82
2023/08/17 00:55:40;;;;;;;4.63;1.45;;;16.60;99.90;;;;;;5048478;28;20814;-82
2023/08/17 00:58:06;;;;;;;3.27;1.37;;;16.70;99.90;;;;;;5045152;28;20278;-81
2023/08/17 01:00:34;;;;;;;4.05;1.60;;;16.60;99.90;;;;;;5046005;28;20212;-81
2023/08/17 01:03:01;;;;;;;3.88;1.60;;;16.60;99.90;;;;;;5052559;28;20215;-80
2023/08/17 01:05:28;;;;;;;5.20;1.37;;;16.60;99.90;;;;;;5053374;28;20266;-80
2023/08/17 01:07:57;;;;;;;6.17;1.70;;;16.50;99.90;;;;;;5057261;28;20223;-80
2023/08/17 01:10:26;;;;;;;4.18;1.65;;;16.60;99.90;;;;;;5045202;28;20293;-79
2023/08/17 01:13:01;;;;;;;3.97;1.93;;;16.50;99.90;;;;;;5053041;28;20223;-80
2023/08/17 01:15:35;;;;;;;4.82;1.50;;;16.50;99.90;;;;;;5043994;28;20252;-80
2023/08/17 01:18:10;;;;;;;2.73;1.40;;;16.50;99.90;;;;;;5049943;28;20212;-80
2023/08/17 01:20:38;;;;;;;3.30;1.70;;;16.50;99.90;;;;;;5051237;28;20315;-79
2023/08/17 01:23:08;;;;;;;3.03;1.63;;;16.50;99.90;;;;;;5056040;28;20939;-81
2023/08/17 01:25:36;;;;;;;3.63;1.90;;;16.50;99.90;;;;;;5047839;28;20505;-81
2023/08/17 01:28:04;;;;;;;5.23;1.67;;;16.50;99.90;;;;;;5048266;28;20227;-81
2023/08/17 01:30:38;;;;;;;2.75;1.48;;;16.40;99.90;;;;;;5051685;28;20224;-80
2023/08/17 01:33:09;;;;;;;4.37;1.60;;;16.40;99.90;;;;;;5054396;28;20851;-81
2023/08/17 01:35:42;;;;;;;5.57;1.67;;;16.40;99.90;;;;;;5048211;28;20223;-81
2023/08/17 01:38:15;;;;;;;3.13;1.38;;;16.40;99.90;;;;;;5051249;28;20223;-81
2023/08/17 01:40:43;;;;;;;3.70;1.80;;;16.40;99.90;;;;;;5069689;28;20236;-81
2023/08/17 01:43:13;;;;;;;5.32;1.50;;;16.40;99.90;;;;;;5048837;28;20269;-82
2023/08/17 01:45:39;;;;;;;3.38;1.40;;;16.40;99.90;;;;;;5045068;28;20312;-81
2023/08/17 01:48:06;;;;;;;2.90;1.50;;;16.50;99.90;;;;;;5048442;28;20593;-82
2023/08/17 01:50:33;;;;;;;4.03;1.48;;;16.50;99.90;;;;;;5054711;28;20613;-82
2023/08/17 01:53:00;;;;;;;2.63;1.20;;;16.50;99.90;;;;;;5054014;28;20628;-82
2023/08/17 01:55:29;;;;;;;5.40;1.70;;;16.50;99.90;;;;;;5053041;28;20224;-81
2023/08/17 01:57:56;;;;;;;5.03;1.52;;;16.50;99.90;;;;;;5051378;28;20251;-81
2023/08/17 02:00:23;;;;;;;4.40;1.50;;;16.50;99.90;;;;;;5065797;28;20839;-81
2023/08/17 02:02:50;;;;;;;3.63;1.30;;;16.50;99.90;;;;;;5047386;28;20224;-81
2023/08/17 02:05:17;;;;;;;3.87;1.53;;;16.50;99.90;;;;;;5047605;28;20563;-81
2023/08/17 02:07:46;;;;;;;2.53;1.38;;;16.60;99.90;;;;;;5047230;28;20295;-81
2023/08/17 02:10:13;;;;;;;3.53;1.40;;;16.60;99.90;;;;;;5051451;28;20273;-81
2023/08/17 02:12:41;;;;;;;3.70;1.40;;;16.60;99.90;;;;;;5064457;28;20224;-80
2023/08/17 02:15:09;;;;;;;2.58;1.55;;;16.60;99.90;;;;;;5046255;28;20717;-79
2023/08/17 02:17:36;;;;;;;4.23;1.40;;;16.60;99.90;;;;;;5043620;28;20616;-81
2023/08/17 02:20:04;;;;;;;4.07;1.43;;;16.70;99.90;;;;;;5051905;28;20247;-81
2023/08/17 02:22:31;;;;;;;2.05;1.40;;;16.70;99.90;;;;;;5068204;28;20231;-81
2023/08/17 02:24:58;;;;;;;2.17;1.20;;;16.70;99.90;;;;;;5046859;28;20307;-81
2023/08/17 02:27:24;;;;;;;2.83;1.10;;;16.70;99.90;;;;;;5046460;28;20829;-81
2023/08/17 02:29:53;;;;;;;5.40;1.48;;;16.70;99.90;;;;;;5046842;28;20227;-81
2023/08/17 02:32:19;;;;;;;3.37;1.33;;;16.70;99.90;;;;;;5045072;28;20226;-81
2023/08/17 02:34:47;;;;;;;4.60;1.70;;;16.60;99.90;;;;;;5051833;28;20257;-81
2023/08/17 02:37:14;;;;;;;3.97;1.57;;;16.60;99.90;;;;;;5048132;28;20224;-80
2023/08/17 02:39:41;;;;;;;2.97;1.53;;;16.60;99.90;;;;;;5043374;28;20316;-80
2023/08/17 02:42:08;;;;;;;5.30;1.63;;;16.50;99.90;;;;;;5040381;28;20694;-81
2023/08/17 02:44:34;;;;;;;3.00;1.63;;;16.50;99.90;;;;;;5046281;28;20227;-81
2023/08/17 02:47:02;;;;;;;2.27;1.37;;;16.50;99.90;;;;;;5051472;28;20313;-81
2023/08/17 02:49:29;;;;;;;2.63;1.33;;;16.40;99.90;;;;;;5043328;28;20812;-81
2023/08/17 02:51:57;;;;;;;2.43;1.50;;;16.40;99.90;;;;;;5052536;28;20281;-81
2023/08/17 02:54:24;;;;;;;4.60;1.75;;;16.40;99.90;;;;;;5051724;28;20619;-81
2023/08/17 02:56:51;;;;;;;4.10;1.60;;;16.40;99.90;;;;;;5048677;28;20768;-80
2023/08/17 02:59:17;;;;;;;4.60;1.70;;;16.40;99.90;;;;;;5049940;28;20250;-81
2023/08/17 03:01:46;;;;;;;2.77;1.47;;;16.40;99.90;;;;;;5046071;28;20223;-81
2023/08/17 03:04:15;;;;;;;2.37;1.40;;;16.40;99.90;;;;;;5050170;28;20849;-80
2023/08/17 03:06:42;;;;;;;3.47;1.40;;;16.40;99.90;;;;;;5050932;28;20769;-80
2023/08/17 03:09:09;;;;;;;3.40;1.40;;;16.40;99.90;;;;;;5048742;28;20225;-80
2023/08/17 03:11:36;;;;;;;4.57;1.47;;;16.30;99.90;;;;;;5049067;28;20216;-81
2023/08/17 03:14:04;;;;;;;3.67;1.30;;;16.30;99.90;;;;;;5050865;28;21027;-80
2023/08/17 03:16:31;;;;;;;2.47;1.23;;;16.30;99.90;;;;;;5049329;28;20227;-82
2023/08/17 03:18:58;;;;;;;3.60;1.40;;;16.30;99.90;;;;;;5051400;28;20314;-82
2023/08/17 03:21:26;;;;;;;4.83;1.20;;;16.30;99.90;;;;;;5054030;28;20230;-81
2023/08/17 03:23:53;;;;;;;5.07;1.63;;;16.40;99.90;;;;;;5050553;28;20232;-80
2023/08/17 03:26:20;;;;;;;5.53;1.83;;;16.40;99.90;;;;;;5050572;28;20256;-81
2023/08/17 03:28:47;;;;;;;4.40;1.47;;;16.40;99.90;;;;;;5051270;28;20234;-81
2023/08/17 03:31:14;;;;;;;4.73;1.70;;;16.40;99.90;;;;;;5044410;28;20283;-81
2023/08/17 03:33:42;;;;;;;3.50;1.50;;;16.40;99.90;;;;;;5055516;28;20239;-80
2023/08/17 03:36:09;;;;;;;3.90;1.50;;;16.40;99.90;;;;;;5047767;28;20223;-80
2023/08/17 03:38:38;;;;;;;3.15;1.40;;;16.40;99.90;;;;;;5046428;28;20239;-80
2023/08/17 03:41:06;;;;;;;4.43;1.50;;;16.30;99.90;;;;;;5048159;28;20234;-80
2023/08/17 03:43:33;;;;;;;4.63;1.60;;;16.30;99.90;;;;;;5050523;28;20227;-80
2023/08/17 03:46:01;;;;;;;3.33;1.50;;;16.30;99.90;;;;;;5050387;28;20220;-80
2023/08/17 03:48:27;;;;;;;3.80;1.70;;;16.30;99.90;;;;;;5047221;28;20347;-80
2023/08/17 03:50:55;;;;;;;4.17;1.53;;;16.30;99.90;;;;;;5050254;28;20220;-80
2023/08/17 03:53:22;;;;;;;2.90;1.43;;;16.30;99.90;;;;;;5049178;28;20703;-80
2023/08/17 03:55:51;;;;;;;3.07;1.40;;;16.30;99.90;;;;;;5049331;28;20247;-80
2023/08/17 03:58:19;;;;;;;3.73;1.30;;;16.30;99.90;;;;;;5049349;28;20316;-81
2023/08/17 04:00:50;;;;;;;6.27;2.00;;;16.30;99.90;;;;;;5057476;28;20669;-80
2023/08/17 04:03:18;;;;;;;3.80;1.30;;;16.30;99.90;;;;;;5051985;28;20220;-81
2023/08/17 04:05:45;;;;;;;4.80;1.70;;;16.30;99.90;;;;;;5041195;28;20307;-82
2023/08/17 04:08:11;;;;;;;4.03;1.30;;;16.30;99.90;;;;;;5045370;28;20942;-82
2023/08/17 04:10:39;;;;;;;2.93;1.50;;;16.30;99.90;;;;;;5048312;28;20279;-81
2023/08/17 04:13:07;;;;;;;5.07;1.70;;;16.30;99.90;;;;;;5044632;28;20219;-81
2023/08/17 04:15:34;;;;;;;3.40;1.40;;;16.30;99.90;;;;;;5050861;28;20306;-80
2023/08/17 04:18:01;;;;;;;3.77;1.50;;;16.30;99.90;;;;;;5055498;28;20293;-81
2023/08/17 04:20:27;;;;;;;4.07;1.50;;;16.30;99.90;;;;;;5044775;28;20216;-80
2023/08/17 04:22:54;;;;;;;2.20;1.20;;;16.30;99.90;;;;;;5043959;28;20231;-83
2023/08/17 04:25:21;;;;;;;7.10;1.70;;;16.30;99.90;;;;;;5043349;28;20251;-81
2023/08/17 04:27:48;;;;;;;3.93;1.90;;;16.30;99.90;;;;;;5048715;28;20223;-80
2023/08/17 04:30:16;;;;;;;3.33;1.53;;;16.30;99.90;;;;;;5058800;28;20651;-80
2023/08/17 04:32:54;;;;;;;2.93;1.67;;;16.30;99.90;;;;;;5061656;28;20277;-81
2023/08/17 04:35:21;;;;;;;5.33;1.83;;;16.30;99.90;;;;;;5040273;28;20990;-79
2023/08/17 04:37:48;;;;;;;4.43;1.50;;;16.30;99.90;;;;;;5046399;28;20783;-83
2023/08/17 04:40:15;;;;;;;3.77;1.70;;;16.30;99.90;;;;;;5046291;28;20285;-82
2023/08/17 04:42:43;;;;;;;4.93;1.60;;;16.30;99.90;;;;;;5049412;28;20245;-81
2023/08/17 04:45:10;;;;;;;3.23;1.70;;;16.40;99.90;;;;;;5049747;28;20227;-79
2023/08/17 04:47:42;;;;;;;6.27;1.80;;;16.40;99.90;;;;;;5049586;28;20303;-79
2023/08/17 04:50:09;;;;;;;5.65;1.70;;;16.40;99.90;;;;;;5037961;28;20220;-79
2023/08/17 04:52:36;;;;;;;2.90;1.60;;;16.40;99.90;;;;;;5048715;28;20227;-79
2023/08/17 04:55:03;;;;;;;4.47;1.37;;;16.40;99.90;;;;;;5059877;28;20219;-79
2023/08/17 04:57:32;;;;;;;6.07;1.60;;;16.50;99.90;;;;;;5050468;28;20211;-80
2023/08/17 04:59:59;;;;;;;3.88;1.90;;;16.50;99.90;;;;;;5048366;28;20315;-80
2023/08/17 05:02:26;;;;;;;3.53;1.45;;;16.50;99.90;;;;;;5051615;28;20224;-78
2023/08/17 05:04:55;;;;;;;3.63;1.53;;;16.50;99.90;;;;;;5047637;28;20220;-80
2023/08/17 05:07:21;;;;;;;4.32;1.70;;;16.50;99.90;;;;;;5049404;28;20642;-80
2023/08/17 05:09:48;;;;;;;5.82;1.80;;;16.50;99.90;;;;;;5048030;28;20223;-81
2023/08/17 05:12:15;;;;;;;7.03;2.27;;;16.50;99.90;;;;;;5050426;28;20282;-83
2023/08/17 05:14:42;;;;;;;7.03;2.17;;;16.60;99.90;;;;;;5042839;28;20764;-82
2023/08/17 05:17:08;;;;;;;5.10;1.80;;;16.60;99.90;;;;;;5069064;28;20216;-81
2023/08/17 05:19:35;;;;;;;3.17;1.60;;;16.60;99.90;;;;;;5046588;28;20258;-81
2023/08/17 05:22:04;;;;;;;4.23;1.50;;;16.60;99.90;;;;;;5051207;28;20212;-81
2023/08/17 05:24:30;;;;;;;5.55;1.48;;;16.70;99.90;;;;;;5055932;28;20223;-82
2023/08/17 05:26:57;;;;;;;3.40;1.77;;;16.70;99.90;;;;;;5052032;28;20301;-82
2023/08/17 05:29:24;;;;;;;6.25;2.03;;;16.70;99.90;;;;;;5052717;28;20861;-82
2023/08/17 05:31:51;;;;;;;5.60;2.20;;;16.80;99.90;;;;;;5043855;28;20491;-82
2023/08/17 05:34:19;;;;;;;5.10;1.85;;;16.80;99.90;;;;;;5035465;28;20219;-82
2023/08/17 05:36:46;;;;;;;5.80;2.77;;;16.80;99.90;;;;;;5072147;28;20227;-82
2023/08/17 05:39:15;;;;;;;10.10;3.27;;;16.80;99.90;;;;;;5041638;28;20302;-82
2023/08/17 05:41:41;;;;;;;6.30;2.83;;;16.80;99.90;;;;;;5041766;28;20227;-85
2023/08/17 05:44:09;;;;;;;9.83;2.87;;;16.80;99.90;;;;;;5057169;28;20230;-83
2023/08/17 05:46:36;;;;;;;8.43;2.97;;;16.80;99.90;;;;;;5057731;28;20224;-83
2023/08/17 05:49:03;;;;;;;11.73;2.87;;;16.70;99.90;;;;;;5044403;28;20314;-82
2023/08/17 05:51:31;;;;;;;10.13;3.88;;;16.70;99.90;;;;;;5056094;28;20303;-83
2023/08/17 05:53:58;;;;;;;6.40;3.50;;;16.60;99.90;;;;;;5058793;28;20223;-83
2023/08/17 05:56:26;;;;;;;10.07;3.47;;;16.50;99.90;;;;;;5057612;28;20233;-84
2023/08/17 05:58:52;;;;;;;5.60;2.90;;;16.50;99.90;;;;;;5058910;28;20760;-83
2023/08/17 06:01:19;;;;;;;5.57;3.20;;;16.40;99.90;;;;;;5036981;28;20823;-83
2023/08/17 06:03:46;;;;;;;7.27;2.93;;;16.30;99.90;;;;;;5046464;28;20227;-82
2023/08/17 06:06:12;;;;;;;8.50;3.00;;;16.30;99.90;;;;;;5058072;28;20223;-82
2023/08/17 06:08:39;;;;;;;5.57;3.10;;;16.20;99.90;;;;;;5062290;28;20310;-82
2023/08/17 06:11:06;;;;;;;11.23;3.63;;;16.10;99.90;;;;;;5056708;28;20226;-82
2023/08/17 06:13:35;;;;;;;4.90;3.10;;;16.10;99.90;;;;;;5051013;28;20226;-82
2023/08/17 06:16:02;;;;;;;8.73;3.50;;;16.00;99.90;;;;;;5051640;28;20818;-82
2023/08/17 06:18:30;;;;;;;7.17;3.30;;;16.00;99.90;;;;;;5052314;28;20232;-82
2023/08/17 06:20:56;;;;;;;5.50;3.30;;;16.00;99.90;;;;;;5055912;28;20224;-82
2023/08/17 06:23:24;;;;;;;8.37;3.43;;;15.90;99.90;;;;;;5054026;28;20228;-82
2023/08/17 06:25:50;;;;;;;10.88;3.70;;;15.90;99.90;;;;;;5055604;28;20257;-82
2023/08/17 06:28:17;;;;;;;8.17;4.03;;;15.80;99.90;;;;;;5054932;28;20223;-82
2023/08/17 06:30:45;;;;;;;5.67;3.40;;;15.80;99.90;;;;;;5051750;28;20232;-82
2023/08/17 06:33:11;;;;;;;7.47;3.50;;;15.80;99.90;;;;;;5053630;28;20223;-82
2023/08/17 06:35:38;;;;;;;9.27;4.10;;;15.70;99.90;;;;;;5048747;28;20227;-83
2023/08/17 06:38:05;;;;;;;7.43;3.40;;;15.70;99.90;;;;;;5044263;28;20224;-81
2023/08/17 06:40:31;;;;;;;4.40;3.10;;;15.70;99.90;;;;;;5052608;28;20230;-81
2023/08/17 06:42:58;;;;;;;7.43;3.27;;;15.70;99.90;;;;;;5056493;28;20226;-81
2023/08/17 06:45:25;;;;;;;6.47;2.80;;;15.70;99.90;;;;;;5053072;28;20242;-82
2023/08/17 06:47:53;;;;;;;10.33;3.63;;;15.60;99.90;;;;;;5053715;28;20219;-81
2023/08/17 06:50:20;;;;;;;6.97;3.13;;;15.60;99.90;;;;;;5050311;28;20415;-81
2023/08/17 06:52:46;;;;;;;9.57;3.10;;;15.50;99.90;;;;;;5057140;28;20736;-81
2023/08/17 06:55:13;;;;;;;6.83;2.90;;;15.50;99.90;;;;;;5062465;28;20750;-81
2023/08/17 06:57:40;;;;;;;7.93;2.90;;;15.40;99.90;;;;;;5056054;28;20435;-81
2023/08/17 07:00:08;;;;;;;6.03;3.00;;;15.40;99.90;;;;;;5046935;28;20235;-81
2023/08/17 07:02:35;;;;;;;10.90;3.40;;;15.40;99.90;;;;;;5067615;28;20223;-83
2023/08/17 07:05:04;;;;;;;3.20;2.57;;;15.40;99.90;;;;;;5053299;28;20227;-81
2023/08/17 07:07:32;;;;;;;5.87;2.90;;;15.40;99.90;;;;;;5047619;28;20301;-82
2023/08/17 07:09:58;;;;;;;5.60;3.47;;;15.40;99.90;;;;;;5046614;28;20223;-80
2023/08/17 07:12:25;;;;;;;7.07;3.30;;;15.40;99.90;;;;;;5050799;28;20778;-81
2023/08/17 07:14:52;;;;;;;5.13;3.00;;;15.40;99.90;;;;;;5046898;28;20293;-80
2023/08/17 07:17:19;;;;;;;6.37;2.87;;;15.40;99.90;;;;;;5037714;28;20239;-81
2023/08/17 07:19:45;;;;;;;5.97;3.23;;;15.40;99.90;;;;;;5045278;28;20247;-81
2023/08/17 07:22:13;;;;;;;4.23;3.03;;;15.40;99.90;;;;;;5051122;28;20226;-80
2023/08/17 07:24:40;;;;;;;5.80;3.60;;;15.40;99.90;;;;;;5051517;28;20287;-80
2023/08/17 07:27:07;;;;;;;6.07;3.27;;;15.40;99.90;;;;;;5045167;28;20234;-81
2023/08/17 07:29:33;;;;;;;4.93;2.67;;;15.40;99.90;;;;;;5052480;28;20232;-81
2023/08/17 07:32:01;;;;;;;5.10;3.40;;;15.40;99.90;;;;;;5055193;28;20229;-81
2023/08/17 07:34:29;;;;;;;4.83;2.90;;;15.40;99.90;;;;;;5069907;28;20462;-81
2023/08/17 07:36:56;;;;;;;5.77;3.47;;;15.40;99.90;;;;;;5052818;28;20263;-81
2023/08/17 07:39:25;;;;;;;5.13;3.40;;;15.50;99.90;;;;;;5052291;28;20228;-81
2023/08/17 07:41:51;;;;;;;6.03;3.30;;;15.50;99.90;;;;;;5046291;28;20489;-81
2023/08/17 07:44:18;;;;;;;5.63;3.60;;;15.50;99.90;;;;;;5048118;28;20289;-81
2023/08/17 07:46:45;;;;;;;4.50;3.60;;;15.50;99.90;;;;;;5053674;28;20231;-81
2023/08/17 07:49:11;;;;;;;7.30;3.57;;;15.60;99.90;;;;;;5055295;28;20238;-82
2023/08/17 07:54:05;;;;;;;7.67;3.50;;;15.60;99.90;;;;;;4989592;28;20272;-82
2023/08/17 07:56:36;;;;;;;5.80;3.50;;;15.60;99.90;;;;;;5003238;28;20750;-81
2023/08/17 07:59:03;;;;;;;5.27;3.93;;;15.60;99.90;;;;;;4998675;28;20217;-80
2023/08/17 08:01:30;;;;;;;5.80;3.40;;;15.60;99.90;;;;;;4994507;28;20225;-81
2023/08/17 08:03:57;;;;;;;7.23;3.43;;;15.70;99.90;;;;;;4992052;28;20218;-81
2023/08/17 08:06:24;;;;;;;5.50;3.30;;;15.70;99.90;;;;;;4992869;28;20672;-81
2023/08/17 08:08:51;;;;;;;4.30;3.17;;;15.70;99.90;;;;;;5007865;28;20224;-81
2023/08/17 08:11:17;;;;;;;6.03;3.20;;;15.70;99.90;;;;;;4984446;28;20237;-80
2023/08/17 08:13:45;;;;;;;4.57;3.10;;;15.70;99.90;;;;;;4990738;28;20570;-81
2023/08/17 08:16:12;;;;;;;4.23;2.80;;;15.80;99.90;;;;;;4993736;28;20226;-81
2023/08/17 08:18:39;;;;;;;5.13;3.27;;;15.80;99.90;;;;;;4996411;28;20236;-81
2023/08/17 08:21:05;;;;;;;6.13;3.10;;;15.80;99.90;;;;;;4992881;28;20229;-81
2023/08/17 08:23:32;;;;;;;3.60;2.13;;;15.80;99.90;;;;;;4983661;28;20222;-81
2023/08/17 08:25:59;;;;;;;4.33;2.23;;;15.80;99.90;;;;;;4993136;28;20230;-81
2023/08/17 08:28:25;;;;;;;3.60;2.40;;;15.90;99.90;;;;;;4997136;28;20236;-81
2023/08/17 08:30:54;;;;;;;2.30;2.00;;;15.80;99.90;;;;;;4999047;28;20213;-81
2023/08/17 08:33:20;;;;;;;3.93;1.93;;;15.80;99.90;;;;;;4983490;28;20226;-81
2023/08/17 08:35:47;;;;;;;2.87;1.80;;;15.70;99.90;;;;;;4991368;28;20226;-81
2023/08/17 08:38:15;;;;;;;2.43;1.90;;;15.70;99.90;;;;;;4996241;28;20572;-80
2023/08/17 08:40:43;;;;;;;5.47;2.50;;;15.70;99.90;;;;;;5012988;28;20225;-81
2023/08/17 08:43:10;;;;;;;3.07;2.10;;;15.70;99.90;;;;;;4999066;28;20950;-80
2023/08/17 08:45:37;;;;;;;4.80;2.27;;;15.70;99.90;;;;;;4997726;28;20693;-80
2023/08/17 08:48:06;;;;;;;3.67;2.50;;;15.70;99.90;;;;;;4991466;28;20808;-81
2023/08/17 08:50:34;;;;;;;4.10;2.37;;;15.70;99.90;;;;;;4993510;28;20881;-81
2023/08/17 08:53:03;;;;;;;4.77;2.20;;;15.80;99.90;;;;;;4992233;28;20226;-82
2023/08/17 08:55:34;;;;;;;3.77;2.20;;;15.80;99.90;;;;;;4988270;28;20241;-82
2023/08/17 08:58:03;;;;;;;3.43;2.47;;;15.90;99.90;;;;;;4985155;28;20596;-81
2023/08/17 09:00:31;;;;;;;4.77;2.40;;;16.00;99.90;;;;;;4989587;28;20237;-81
2023/08/17 09:02:58;;;;;;;2.70;1.90;;;16.00;99.90;;;;;;4987802;28;20238;-81
2023/08/17 09:05:27;;;;;;;2.93;2.00;;;16.10;99.90;;;;;;4989520;28;20294;-81
2023/08/17 09:07:55;;;;;;;3.23;1.90;;;16.10;99.90;;;;;;4982562;28;20233;-81
2023/08/17 09:10:22;;;;;;;1.83;1.67;;;16.10;99.90;;;;;;4993403;28;20230;-81
2023/08/17 09:12:48;;;;;;;2.67;1.70;;;16.10;99.90;;;;;;4996272;28;20214;-81
2023/08/17 09:15:15;;;;;;;2.60;1.67;;;16.10;99.90;;;;;;4988579;28;20240;-81
2023/08/17 09:17:43;;;;;;;2.93;1.97;;;16.10;99.90;;;;;;4991061;28;20230;-81
2023/08/17 09:20:11;;;;;;;2.83;1.70;;;16.10;99.90;;;;;;4992514;28;20653;-81
2023/08/17 09:22:41;;;;;;;3.13;1.60;;;16.10;99.90;;;;;;5008788;28;20214;-81
2023/08/17 09:25:09;;;;;;;2.83;1.60;;;16.10;99.90;;;;;;4995391;28;20241;-81
2023/08/17 09:27:36;;;;;;;3.60;2.07;;;16.00;99.90;;;;;;5014303;28;20226;-81
2023/08/17 09:30:05;;;;;;;3.07;1.93;;;16.00;99.90;;;;;;4995713;28;20240;-81
2023/08/17 09:32:32;;;;;;;3.13;1.43;;;16.00;99.90;;;;;;4987478;28;20704;-81
2023/08/17 09:35:01;;;;;;;2.87;1.70;;;16.00;99.90;;;;;;5002162;28;20222;-80
2023/08/17 09:37:28;;;;;;;3.53;1.63;;;15.90;99.90;;;;;;4991237;28;20285;-80
2023/08/17 09:39:56;;;;;;;1.83;1.33;;;15.90;99.90;;;;;;4997086;28;20758;-81
2023/08/17 09:42:25;;;;;;;2.33;1.43;;;15.90;99.90;;;;;;4993709;28;20228;-80
2023/08/17 09:44:52;;;;;;;2.67;1.37;;;15.90;99.90;;;;;;5002478;28;20690;-81
2023/08/17 09:47:21;;;;;;;2.57;1.70;;;15.80;99.90;;;;;;4993573;28;20255;-81
2023/08/17 09:49:50;;;;;;;2.37;1.90;;;15.80;99.90;;;;;;4995892;28;20218;-81
2023/08/17 09:52:17;;;;;;;2.20;1.27;;;15.80;99.90;;;;;;4996528;28;20222;-81
2023/08/17 09:54:46;;;;;;;2.30;1.33;;;15.80;99.90;;;;;;4992788;28;20249;-81
2023/08/17 09:57:14;;;;;;;1.50;1.23;;;15.70;99.90;;;;;;5014366;28;20317;-78
2023/08/17 09:59:41;;;;;;;1.97;1.30;;;15.70;99.90;;;;;;4992821;28;20229;-78
2023/08/17 10:02:18;;;;;;;1.10;1.00;;;15.60;99.90;;;;;;4989412;28;21011;-77
2023/08/17 10:04:47;;;;;;;1.60;1.33;;;15.50;99.90;;;;;;4995005;28;20702;-77
2023/08/17 10:07:15;;;;;;;1.70;1.60;;;15.50;99.90;;;;;;4994603;28;20226;-78
2023/08/17 10:09:46;;;;;;;1.63;1.23;;;15.40;99.90;;;;;;5001154;28;20228;-78
2023/08/17 10:12:17;;;;;;;1.87;1.30;;;15.40;99.90;;;;;;4995018;28;20743;-78
2023/08/17 10:14:50;;;;;;;3.07;1.57;;;15.30;99.90;;;;;;4994817;28;20231;-78
2023/08/17 10:17:25;;;;;;;2.93;1.67;;;15.30;99.90;;;;;;4988918;28;20271;-78
2023/08/17 10:19:55;;;;;;;2.50;1.70;;;15.30;99.90;;;;;;4989943;28;20229;-78
2023/08/17 10:22:30;;;;;;;2.07;1.80;;;15.30;99.90;;;;;;5007891;28;20230;-78
2023/08/17 10:24:59;;;;;;;2.17;1.67;;;15.30;99.90;;;;;;4989486;28;20229;-78
2023/08/17 10:27:27;;;;;;;2.07;1.63;;;15.30;99.90;;;;;;4993671;28;20233;-77
2023/08/17 10:29:54;;;;;;;2.83;2.10;;;15.30;99.90;;;;;;4995050;28;20587;-78
2023/08/17 10:32:23;;;;;;;5.07;2.37;;;15.30;99.90;;;;;;4984398;28;20781;-78
2023/08/17 10:34:50;;;;;;;3.93;2.10;;;15.30;99.90;;;;;;4976227;28;20256;-78
2023/08/17 10:37:19;;;;;;;3.43;1.60;;;15.30;99.90;;;;;;4987355;28;20312;-77
2023/08/17 10:39:47;;;;;;;3.07;1.93;;;15.30;99.90;;;;;;4997305;28;20236;-77
2023/08/17 10:42:15;;;;;;;2.93;2.07;;;15.30;99.90;;;;;;4996187;28;20217;-77
2023/08/17 10:44:45;;;;;;;2.90;1.67;;;15.30;99.90;;;;;;4991089;28;20234;-77
2023/08/17 10:47:22;;;;;;;2.80;1.77;;;15.30;99.90;;;;;;4988418;28;20321;-78
2023/08/17 10:49:50;;;;;;;1.97;1.60;;;15.20;99.90;;;;;;4991686;28;20236;-78
2023/08/17 10:52:26;;;;;;;2.47;1.53;;;15.20;99.90;;;;;;4997242;28;20250;-79
2023/08/17 10:54:54;;;;;;;5.33;2.00;;;15.20;99.90;;;;;;4998188;28;20252;-79
2023/08/17 10:57:35;;;;;;;4.00;1.77;;;15.10;99.90;;;;;;4999655;28;20235;-79
2023/08/17 11:00:20;;;;;;;2.37;1.53;;;15.00;99.90;;;;;;5011941;28;20244;-78
2023/08/17 11:02:52;;;;;;;2.60;1.53;;;14.90;99.90;;;;;;5006902;28;20286;-78
2023/08/17 11:05:36;;;;;;;3.80;1.60;;;14.80;99.90;;;;;;4995894;28;20325;-78
2023/08/17 11:08:03;;;;;;;2.33;1.60;;;14.70;99.90;;;;;;4997634;28;20732;-78
2023/08/17 11:10:30;;;;;;;4.53;2.03;;;14.70;99.90;;;;;;4990142;28;20709;-79
2023/08/17 11:12:59;;;;;;;3.53;1.97;;;14.60;99.90;;;;;;5008241;28;20247;-80
2023/08/17 11:15:37;;;;;;;2.83;1.87;;;14.60;99.90;;;;;;5008582;28;21368;-79
2023/08/17 11:18:05;;;;;;;4.00;2.20;;;14.60;99.90;;;;;;4990796;28;20240;-78
2023/08/17 11:20:32;;;;;;;3.33;2.40;;;14.70;99.90;;;;;;4998866;28;20227;-79
2023/08/17 11:22:58;;;;;;;4.23;2.47;;;14.70;99.90;;;;;;4996871;28;20229;-79
2023/08/17 11:25:26;;;;;;;3.63;2.50;;;14.80;99.90;;;;;;4999071;28;20252;-79
2023/08/17 11:27:53;;;;;;;2.70;2.50;;;14.90;99.90;;;;;;5009456;28;20227;-81
2023/08/17 11:30:22;;;;;;;4.60;2.50;;;15.00;99.90;;;;;;4996292;28;20228;-79
2023/08/17 11:32:50;;;;;;;4.53;2.20;;;15.10;99.90;;;;;;4999718;28;20220;-80
2023/08/17 11:35:17;;;;;;;2.87;2.60;;;15.20;99.90;;;;;;5011570;28;20239;-81
2023/08/17 11:37:44;;;;;;;3.87;2.97;;;15.30;99.90;;;;;;4999038;28;20236;-78
2023/08/17 11:40:12;;;;;;;7.83;3.27;;;15.40;99.90;;;;;;5000002;28;20718;-79
2023/08/17 11:42:39;;;;;;;6.43;3.40;;;15.50;99.90;;;;;;4983440;28;20230;-79
2023/08/17 11:45:07;;;;;;;5.70;3.27;;;15.70;99.90;;;;;;5005904;28;20222;-80
2023/08/17 11:47:35;;;;;;;4.43;3.53;;;15.80;99.90;;;;;;4987279;28;20288;-79
2023/08/17 11:50:04;;;;;;;4.27;3.70;;;15.90;99.90;;;;;;5003396;28;20225;-79
2023/08/17 11:52:32;;;;;;;4.90;2.87;;;15.90;99.90;;;;;;4992944;28;20230;-79
2023/08/17 11:54:59;;;;;;;5.03;2.60;;;16.00;99.90;;;;;;4991314;28;20225;-79
2023/08/17 11:57:26;;;;;;;4.57;2.37;;;16.10;99.90;;;;;;4991351;28;20240;-80
2023/08/17 11:59:54;;;;;;;5.73;3.40;;;16.00;99.90;;;;;;5004833;28;20703;-79
2023/08/17 12:02:22;;;;;;;4.47;3.10;;;16.00;99.90;;;;;;4993407;28;20233;-79
2023/08/17 12:04:49;;;;;;;4.73;2.90;;;16.10;99.90;;;;;;4994720;28;20222;-80
2023/08/17 12:07:18;;;;;;;4.33;2.97;;;16.10;99.90;;;;;;5007791;28;20315;-80
2023/08/17 12:09:45;;;;;;;5.00;3.27;;;16.20;99.90;;;;;;4989217;28;20804;-80
2023/08/17 12:12:12;;;;;;;4.30;2.90;;;16.20;99.90;;;;;;5001325;28;20210;-79
2023/08/17 12:14:42;;;;;;;3.23;2.80;;;16.30;99.90;;;;;;4997603;28;20214;-80
2023/08/17 12:17:15;;;;;;;4.07;2.60;;;16.40;99.90;;;;;;5011533;28;20642;-80
2023/08/17 12:19:42;;;;;;;3.80;2.80;;;16.50;99.90;;;;;;4980854;28;20218;-79
2023/08/17 12:22:09;;;;;;;2.80;2.47;;;16.50;99.90;;;;;;4996627;28;20230;-81
2023/08/17 12:24:38;;;;;;;3.50;3.20;;;16.50;99.90;;;;;;4985489;28;20704;-79
2023/08/17 12:27:06;;;;;;;3.93;2.90;;;16.60;99.90;;;;;;4991615;28;20278;-80
2023/08/17 12:29:33;;;;;;;5.67;2.70;;;16.60;99.90;;;;;;4993372;28;20239;-79
2023/08/17 12:32:00;;;;;;;4.03;3.33;;;16.70;99.90;;;;;;4991490;28;20221;-80
2023/08/17 12:34:26;;;;;;;4.40;3.13;;;16.80;99.90;;;;;;4987452;28;20236;-81
2023/08/17 12:36:53;;;;;;;3.77;3.00;;;16.80;99.90;;;;;;4991795;28;20717;-80
2023/08/17 12:39:20;;;;;;;4.77;3.37;;;16.90;99.90;;;;;;4995071;28;20259;-79
2023/08/17 12:41:48;;;;;;;6.13;3.27;;;16.90;99.90;;;;;;4989774;28;20237;-80
2023/08/17 12:44:15;;;;;;;5.57;4.07;;;17.00;99.90;;;;;;4991490;28;20324;-79
2023/08/17 12:46:41;;;;;;;6.23;3.63;;;17.10;99.90;;;;;;4990699;28;20583;-78
2023/08/17 12:49:08;;;;;;;4.50;3.90;;;17.20;99.90;;;;;;4991701;28;20251;-80
2023/08/17 12:51:35;;;;;;;5.20;3.30;;;17.30;99.90;;;;;;4996868;28;20229;-79